Time;durP1;ratioP1;P1;durP2;ratioP2;P2;SDS_P1;SDS_P2;PMS_P1;PMS_P2;Temp;Humidity;BMP_temperature;BMP_pressure;BME280_temperature;BME280_humidity;BME280_pressure;Samples;Min_cycle;Max_cycle;Signal;HPM_P1;HPM_P2
2022/11/12 00:00:28;;;;;;;13.50;8.73;;;;;;;;;;4947330;28;20473;-82
2022/11/12 00:02:53;;;;;;;14.02;8.88;;;;;;;;;;4942314;28;20039;-81
2022/11/12 00:05:22;;;;;;;14.05;9.23;;;;;;;;;;4946316;28;20039;-82
2022/11/12 00:07:47;;;;;;;12.68;8.43;;;;;;;;;;4947406;28;20476;-82
2022/11/12 00:10:13;;;;;;;14.10;8.90;;;;;;;;;;4953717;28;20043;-82
2022/11/12 00:12:38;;;;;;;14.13;8.30;;;;;;;;;;4948702;28;20038;-81
2022/11/12 00:15:04;;;;;;;14.80;8.88;;;;;;;;;;4950274;28;20129;-83
2022/11/12 00:17:29;;;;;;;14.57;9.00;;;;;;;;;;4953486;28;20023;-81
2022/11/12 00:19:55;;;;;;;14.95;9.30;;;;;;;;;;4952381;28;20469;-81
2022/11/12 00:22:21;;;;;;;15.35;9.40;;;;;;;;;;4963855;28;20032;-81
2022/11/12 00:24:46;;;;;;;11.82;8.70;;;;;;;;;;4947452;29;20038;-82
2022/11/12 00:27:12;;;;;;;14.18;9.02;;;;;;;;;;4942417;28;20057;-82
2022/11/12 00:29:37;;;;;;;14.38;8.70;;;;;;;;;;4953851;28;20074;-81
2022/11/12 00:32:05;;;;;;;14.10;9.27;;;;;;;;;;4941153;28;20030;-82
2022/11/12 00:34:30;;;;;;;13.95;8.77;;;;;;;;;;4966789;28;20036;-81
2022/11/12 00:36:56;;;;;;;13.77;8.82;;;;;;;;;;4950724;28;20046;-82
2022/11/12 00:39:21;;;;;;;13.35;9.10;;;;;;;;;;4944170;28;20039;-81
2022/11/12 00:41:46;;;;;;;13.60;8.60;;;;;;;;;;4939976;28;20042;-81
2022/11/12 00:44:12;;;;;;;14.52;9.10;;;;;;;;;;4941906;28;20468;-81
2022/11/12 00:46:37;;;;;;;15.43;9.50;;;;;;;;;;4943280;28;20027;-82
2022/11/12 00:49:03;;;;;;;14.60;9.27;;;;;;;;;;4942197;28;20035;-82
2022/11/12 00:51:28;;;;;;;12.88;8.93;;;;;;;;;;4948741;28;20035;-82
2022/11/12 00:53:53;;;;;;;13.27;9.18;;;;;;;;;;4942818;28;20733;-81
2022/11/12 00:56:19;;;;;;;15.25;9.32;;;;;;;;;;4938693;28;20039;-82
2022/11/12 00:58:44;;;;;;;16.00;9.65;;;;;;;;;;4940636;29;20590;-81
2022/11/12 01:01:13;;;;;;;15.00;9.18;;;;;;;;;;4938212;28;20027;-82
2022/11/12 01:03:39;;;;;;;16.70;9.07;;;;;;;;;;4956953;28;20447;-81
2022/11/12 01:06:08;;;;;;;13.48;9.68;;;;;;;;;;4943786;28;20534;-82
2022/11/12 01:08:34;;;;;;;15.77;9.43;;;;;;;;;;4953179;28;20035;-82
2022/11/12 01:11:09;;;;;;;15.00;9.70;;;;;;;;;;4939113;28;20085;-81
2022/11/12 01:13:35;;;;;;;15.90;9.02;;;;;;;;;;4942390;28;21818;-82
2022/11/12 01:16:10;;;;;;;17.48;9.48;;;;;;;;;;4948353;28;20653;-82
2022/11/12 01:18:36;;;;;;;14.00;9.98;;;;;;;;;;4940799;28;20023;-82
2022/11/12 01:21:03;;;;;;;14.77;9.75;;;;;;;;;;4937496;28;20807;-82
2022/11/12 01:23:31;;;;;;;16.83;9.82;;;;;;;;;;4945559;28;20049;-82
2022/11/12 01:25:56;;;;;;;14.70;9.27;;;;;;;;;;4947769;28;20027;-82
2022/11/12 01:28:22;;;;;;;15.48;9.65;;;;;;;;;;4948073;28;20034;-81
2022/11/12 01:30:47;;;;;;;15.27;9.63;;;;;;;;;;4959842;28;20028;-81
2022/11/12 01:33:13;;;;;;;13.93;8.98;;;;;;;;;;4942327;28;20510;-82
2022/11/12 01:35:38;;;;;;;14.52;9.05;;;;;;;;;;4947337;28;20023;-81
2022/11/12 01:38:03;;;;;;;14.98;10.38;;;;;;;;;;4945795;28;20390;-83
2022/11/12 01:40:31;;;;;;;15.45;10.10;;;;;;;;;;4947719;28;20093;-81
2022/11/12 01:42:56;;;;;;;15.73;9.88;;;;;;;;;;4946676;28;20094;-82
2022/11/12 01:45:22;;;;;;;15.68;9.93;;;;;;;;;;4951105;28;20031;-81
2022/11/12 01:47:50;;;;;;;16.92;9.63;;;;;;;;;;4949615;28;20034;-82
2022/11/12 01:50:30;;;;;;;15.52;10.07;;;;;;;;;;4950589;28;20090;-82
2022/11/12 01:53:07;;;;;;;14.88;9.88;;;;;;;;;;4959559;28;20061;-82
2022/11/12 01:55:36;;;;;;;17.15;10.55;;;;;;;;;;4948078;28;20514;-82
2022/11/12 01:58:09;;;;;;;15.57;9.98;;;;;;;;;;4950724;28;20126;-82
2022/11/12 02:00:35;;;;;;;15.25;9.98;;;;;;;;;;4959872;28;20035;-82
2022/11/12 02:03:06;;;;;;;14.63;10.15;;;;;;;;;;4948275;28;20031;-81
2022/11/12 02:05:33;;;;;;;15.10;10.10;;;;;;;;;;4958792;28;20091;-83
2022/11/12 02:08:00;;;;;;;14.70;10.00;;;;;;;;;;4942073;28;20669;-82
2022/11/12 02:10:26;;;;;;;14.55;10.07;;;;;;;;;;4944082;28;20126;-82
2022/11/12 02:15:38;;;;;;;14.18;10.05;;;;;;;;;;4951136;29;20042;-81
2022/11/12 02:18:04;;;;;;;12.68;8.73;;;;;;;;;;4945024;28;20479;-82
2022/11/12 02:20:34;;;;;;;13.02;9.50;;;;;;;;;;4950150;28;20037;-81
2022/11/12 02:23:00;;;;;;;13.32;9.55;;;;;;;;;;4950900;28;20054;-81
2022/11/12 02:25:26;;;;;;;14.23;9.18;;;;;;;;;;4957632;28;20031;-82
2022/11/12 02:27:54;;;;;;;14.90;9.75;;;;;;;;;;4944591;28;20035;-81
2022/11/12 02:30:37;;;;;;;14.15;8.52;;;;;;;;;;4943120;28;20090;-81
2022/11/12 02:33:02;;;;;;;14.68;9.20;;;;;;;;;;4949373;28;20042;-82
2022/11/12 02:35:29;;;;;;;14.20;9.20;;;;;;;;;;4950975;28;20398;-81
2022/11/12 02:37:54;;;;;;;13.15;8.68;;;;;;;;;;4948047;28;21963;-81
2022/11/12 02:40:20;;;;;;;13.35;9.15;;;;;;;;;;4956727;28;20517;-82
2022/11/12 02:42:45;;;;;;;15.25;9.27;;;;;;;;;;4961779;28;20031;-81
2022/11/12 02:45:11;;;;;;;13.82;9.48;;;;;;;;;;4941519;28;20363;-81
2022/11/12 02:47:36;;;;;;;13.73;8.88;;;;;;;;;;4948693;28;20035;-82
2022/11/12 02:50:03;;;;;;;12.95;8.82;;;;;;;;;;4940449;28;20035;-81
2022/11/12 02:52:29;;;;;;;13.85;8.98;;;;;;;;;;4945621;28;20059;-81
2022/11/12 02:54:54;;;;;;;13.15;9.13;;;;;;;;;;4945127;28;20106;-82
2022/11/12 02:57:20;;;;;;;11.30;8.07;;;;;;;;;;4962906;28;20026;-81
2022/11/12 02:59:45;;;;;;;13.82;8.27;;;;;;;;;;4944261;28;20038;-81
2022/11/12 03:02:10;;;;;;;13.35;8.32;;;;;;;;;;4944576;28;20042;-82
2022/11/12 03:04:36;;;;;;;13.77;8.98;;;;;;;;;;4956274;28;20042;-81
2022/11/12 03:07:01;;;;;;;15.90;8.90;;;;;;;;;;4948073;28;20026;-82
2022/11/12 03:09:27;;;;;;;12.73;7.85;;;;;;;;;;4939540;28;20190;-82
2022/11/12 03:11:52;;;;;;;12.40;8.35;;;;;;;;;;4943001;28;20373;-82
2022/11/12 03:14:17;;;;;;;12.23;8.65;;;;;;;;;;4948604;28;20042;-82
2022/11/12 03:16:43;;;;;;;10.88;7.50;;;;;;;;;;4942306;28;20395;-81
2022/11/12 03:19:08;;;;;;;13.30;8.05;;;;;;;;;;4943866;28;20031;-81
2022/11/12 03:21:34;;;;;;;14.80;8.50;;;;;;;;;;4945413;28;20035;-82
2022/11/12 03:24:00;;;;;;;12.85;8.10;;;;;;;;;;4946397;28;20431;-81
2022/11/12 03:26:25;;;;;;;12.73;8.15;;;;;;;;;;4942648;28;20562;-81
2022/11/12 03:28:51;;;;;;;11.80;7.40;;;;;;;;;;4944125;28;20031;-82
2022/11/12 03:31:17;;;;;;;11.77;7.97;;;;;;;;;;4938680;28;20031;-82
2022/11/12 03:33:42;;;;;;;11.30;7.70;;;;;;;;;;4940222;28;20035;-82
2022/11/12 03:36:08;;;;;;;12.15;7.82;;;;;;;;;;4956158;28;20066;-81
2022/11/12 03:38:33;;;;;;;12.27;7.32;;;;;;;;;;4941630;28;20023;-81
2022/11/12 03:40:58;;;;;;;12.38;7.65;;;;;;;;;;4960680;28;20126;-81
2022/11/12 03:43:24;;;;;;;12.05;7.47;;;;;;;;;;4948669;28;20144;-81
2022/11/12 03:45:49;;;;;;;12.45;7.50;;;;;;;;;;4949765;28;20037;-81
2022/11/12 03:48:15;;;;;;;11.35;7.20;;;;;;;;;;4945569;28;20027;-82
2022/11/12 03:50:40;;;;;;;10.43;7.07;;;;;;;;;;4944537;28;20039;-81
2022/11/12 03:53:06;;;;;;;11.18;6.95;;;;;;;;;;4951203;28;20034;-82
2022/11/12 03:55:32;;;;;;;11.05;7.03;;;;;;;;;;4942739;28;20042;-81
2022/11/12 03:57:58;;;;;;;11.05;6.75;;;;;;;;;;4946625;28;20035;-81
2022/11/12 04:00:26;;;;;;;10.85;6.78;;;;;;;;;;4942278;28;20031;-81
2022/11/12 04:02:52;;;;;;;9.73;7.00;;;;;;;;;;4945786;28;20023;-81
2022/11/12 04:10:48;;;;;;;10.25;6.85;;;;;;;;;;4947403;28;20598;-82
2022/11/12 04:13:29;;;;;;;11.98;7.10;;;;;;;;;;4959365;28;20114;-81
2022/11/12 04:21:55;;;;;;;10.32;6.50;;;;;;;;;;4948899;28;20034;-81
2022/11/12 04:27:22;;;;;;;9.38;5.95;;;;;;;;;;4945772;28;20407;-81
2022/11/12 04:32:36;;;;;;;10.25;6.25;;;;;;;;;;4949110;28;20050;-81
2022/11/12 04:35:02;;;;;;;11.18;5.90;;;;;;;;;;4962430;28;20031;-81
2022/11/12 04:37:43;;;;;;;10.68;6.00;;;;;;;;;;4945378;28;20030;-81
2022/11/12 04:45:42;;;;;;;11.30;6.35;;;;;;;;;;4951979;28;20037;-82
2022/11/12 04:48:08;;;;;;;11.00;6.30;;;;;;;;;;4947143;28;20391;-81
2022/11/12 04:50:34;;;;;;;10.40;6.45;;;;;;;;;;4945746;28;20027;-81
2022/11/12 04:52:59;;;;;;;10.23;6.65;;;;;;;;;;4943613;28;20027;-81
2022/11/12 04:55:24;;;;;;;9.43;6.22;;;;;;;;;;4947787;28;20432;-81
2022/11/12 04:57:50;;;;;;;9.65;6.00;;;;;;;;;;4941452;28;20035;-82
2022/11/12 05:00:16;;;;;;;9.02;5.95;;;;;;;;;;4939266;28;20070;-81
2022/11/12 05:02:41;;;;;;;10.10;6.53;;;;;;;;;;4942518;28;20046;-82
2022/11/12 05:05:07;;;;;;;11.95;6.22;;;;;;;;;;4948814;28;20035;-81
2022/11/12 05:07:32;;;;;;;12.60;6.35;;;;;;;;;;4961614;28;20039;-82
2022/11/12 05:09:58;;;;;;;10.38;7.00;;;;;;;;;;4957252;28;20050;-82
2022/11/12 05:12:23;;;;;;;10.40;6.10;;;;;;;;;;4945628;28;20031;-81
2022/11/12 05:14:48;;;;;;;9.57;6.32;;;;;;;;;;4944917;28;20069;-81
2022/11/12 05:17:14;;;;;;;9.65;6.50;;;;;;;;;;4942178;28;20024;-81
2022/11/12 05:19:39;;;;;;;12.05;6.00;;;;;;;;;;4950688;28;20462;-81
2022/11/12 05:22:05;;;;;;;13.15;6.45;;;;;;;;;;4949411;28;20091;-81
2022/11/12 05:24:41;;;;;;;11.93;5.97;;;;;;;;;;4940940;28;20039;-82
2022/11/12 05:27:16;;;;;;;10.65;6.20;;;;;;;;;;4945906;28;20027;-81
2022/11/12 05:29:41;;;;;;;11.77;6.75;;;;;;;;;;4958639;28;20062;-81
2022/11/12 05:32:09;;;;;;;10.38;6.65;;;;;;;;;;4946273;28;20031;-81
2022/11/12 05:34:35;;;;;;;11.02;6.72;;;;;;;;;;4946872;28;20086;-81
2022/11/12 05:37:03;;;;;;;10.05;6.20;;;;;;;;;;4963956;28;20042;-82
2022/11/12 05:39:28;;;;;;;10.10;5.95;;;;;;;;;;4947222;28;20187;-80
2022/11/12 05:41:54;;;;;;;9.60;6.45;;;;;;;;;;4946555;28;20130;-82
2022/11/12 05:44:19;;;;;;;11.68;6.32;;;;;;;;;;4944804;28;20122;-81
2022/11/12 05:46:45;;;;;;;8.90;5.80;;;;;;;;;;4943166;28;20043;-82
2022/11/12 05:49:10;;;;;;;10.20;6.03;;;;;;;;;;4947114;28;20547;-81
2022/11/12 05:51:36;;;;;;;9.95;5.85;;;;;;;;;;4962050;28;20031;-81
2022/11/12 05:54:02;;;;;;;9.15;5.82;;;;;;;;;;4946036;28;20035;-81
2022/11/12 05:56:28;;;;;;;9.52;6.40;;;;;;;;;;4950463;28;20106;-82
2022/11/12 05:58:53;;;;;;;9.30;6.20;;;;;;;;;;4959303;28;21217;-81
2022/11/12 06:01:18;;;;;;;8.98;6.43;;;;;;;;;;4946903;28;20118;-81
2022/11/12 06:03:44;;;;;;;9.68;6.45;;;;;;;;;;4946359;28;20050;-81
2022/11/12 06:06:09;;;;;;;11.20;6.43;;;;;;;;;;4941127;28;20480;-82
2022/11/12 06:08:35;;;;;;;11.60;6.20;;;;;;;;;;4943126;28;21280;-81
2022/11/12 06:11:00;;;;;;;11.52;7.05;;;;;;;;;;4943418;28;20023;-82
2022/11/12 06:13:26;;;;;;;9.05;5.85;;;;;;;;;;4936963;28;20147;-82
2022/11/12 06:15:52;;;;;;;11.13;6.50;;;;;;;;;;4945482;28;20057;-81
2022/11/12 06:18:18;;;;;;;9.38;5.93;;;;;;;;;;4944418;28;20034;-81
2022/11/12 06:20:43;;;;;;;11.23;6.45;;;;;;;;;;4948908;28;20035;-82
2022/11/12 06:23:08;;;;;;;9.85;6.75;;;;;;;;;;4945249;28;20034;-81
2022/11/12 06:25:34;;;;;;;9.23;6.07;;;;;;;;;;4964297;28;20046;-82
2022/11/12 06:27:59;;;;;;;10.52;6.20;;;;;;;;;;4945830;28;20035;-82
2022/11/12 06:30:25;;;;;;;11.73;5.80;;;;;;;;;;4947820;28;20141;-81
2022/11/12 06:32:50;;;;;;;9.55;6.05;;;;;;;;;;4947105;28;20038;-82
2022/11/12 06:35:17;;;;;;;9.93;6.20;;;;;;;;;;4961990;28;20038;-81
2022/11/12 06:37:46;;;;;;;11.98;6.82;;;;;;;;;;4950045;28;20035;-83
2022/11/12 06:40:12;;;;;;;8.95;6.03;;;;;;;;;;4966043;28;20027;-82
2022/11/12 06:42:38;;;;;;;10.60;6.13;;;;;;;;;;4950973;28;20488;-82
2022/11/12 06:45:04;;;;;;;10.77;6.20;;;;;;;;;;4948477;28;20042;-81
2022/11/12 06:47:29;;;;;;;10.40;6.20;;;;;;;;;;4945537;28;20571;-81
2022/11/12 06:49:55;;;;;;;13.57;7.05;;;;;;;;;;4948316;28;20126;-81
2022/11/12 06:52:20;;;;;;;10.23;6.10;;;;;;;;;;4949648;28;20038;-82
2022/11/12 06:54:46;;;;;;;10.25;6.43;;;;;;;;;;4946504;28;20026;-82
2022/11/12 06:57:11;;;;;;;10.00;5.65;;;;;;;;;;4959108;28;20023;-81
2022/11/12 06:59:37;;;;;;;10.77;6.43;;;;;;;;;;4944846;28;20037;-82
2022/11/12 07:02:03;;;;;;;10.52;6.63;;;;;;;;;;4951063;28;20035;-81
2022/11/12 07:04:28;;;;;;;9.70;6.30;;;;;;;;;;4949537;28;20027;-82
2022/11/12 07:06:54;;;;;;;11.57;6.38;;;;;;;;;;4960569;28;20476;-81
2022/11/12 07:09:19;;;;;;;12.82;6.40;;;;;;;;;;4946865;28;20134;-82
2022/11/12 07:11:44;;;;;;;11.45;6.28;;;;;;;;;;4947248;28;20031;-83
2022/11/12 07:14:11;;;;;;;9.93;6.15;;;;;;;;;;4955523;28;20118;-82
2022/11/12 07:16:37;;;;;;;9.38;6.35;;;;;;;;;;4948351;28;20453;-82
2022/11/12 07:19:02;;;;;;;8.77;5.85;;;;;;;;;;4944066;28;20027;-81
2022/11/12 07:21:28;;;;;;;9.90;6.18;;;;;;;;;;4947329;28;20031;-82
2022/11/12 07:23:53;;;;;;;10.23;6.05;;;;;;;;;;4950714;28;20039;-82
2022/11/12 07:26:24;;;;;;;9.88;5.68;;;;;;;;;;4949497;28;20031;-82
2022/11/12 07:28:51;;;;;;;10.05;6.13;;;;;;;;;;4947672;28;20034;-81
2022/11/12 07:31:18;;;;;;;9.70;5.95;;;;;;;;;;4948301;28;20019;-81
2022/11/12 07:33:44;;;;;;;9.15;5.93;;;;;;;;;;4946267;28;20034;-82
2022/11/12 07:36:14;;;;;;;11.45;5.93;;;;;;;;;;4949813;28;20035;-82
2022/11/12 07:38:41;;;;;;;8.88;5.95;;;;;;;;;;4947331;28;20055;-81
2022/11/12 07:41:11;;;;;;;9.98;6.13;;;;;;;;;;4949893;28;20035;-82
2022/11/12 07:43:38;;;;;;;9.48;5.82;;;;;;;;;;4951609;28;20027;-81
2022/11/12 07:46:10;;;;;;;9.00;6.38;;;;;;;;;;4944040;28;20061;-82
2022/11/12 07:48:36;;;;;;;9.37;5.90;;;;;;;;;;4946237;28;20503;-82
2022/11/12 07:51:22;;;;;;;10.43;6.25;;;;;;;;;;4945974;28;20908;-81
2022/11/12 07:53:49;;;;;;;10.10;5.93;;;;;;;;;;4949929;28;20067;-82
2022/11/12 07:56:17;;;;;;;11.05;5.82;;;;;;;;;;4962449;28;20054;-81
2022/11/12 07:58:43;;;;;;;12.77;6.15;;;;;;;;;;4954618;28;21258;-83
2022/11/12 08:01:28;;;;;;;10.60;6.20;;;;;;;;;;4945373;28;20392;-81
2022/11/12 08:03:54;;;;;;;10.45;6.13;;;;;;;;;;4958030;28;20042;-82
2022/11/12 08:06:19;;;;;;;9.00;6.15;;;;;;;;;;4965732;28;20043;-82
2022/11/12 08:08:45;;;;;;;9.05;5.75;;;;;;;;;;4947345;28;20051;-81
2022/11/12 08:11:10;;;;;;;10.23;5.93;;;;;;;;;;4946521;28;20472;-82
2022/11/12 08:13:36;;;;;;;9.65;5.72;;;;;;;;;;4946768;28;20471;-81
2022/11/12 08:16:01;;;;;;;9.95;6.30;;;;;;;;;;4944398;28;20034;-82
2022/11/12 08:18:27;;;;;;;11.48;6.65;;;;;;;;;;4943082;28;20086;-81
2022/11/12 08:20:58;;;;;;;10.10;6.60;;;;;;;;;;4943560;28;20039;-82
2022/11/12 08:23:23;;;;;;;9.88;6.50;;;;;;;;;;4960647;28;20475;-81
2022/11/12 08:25:48;;;;;;;9.63;5.97;;;;;;;;;;4942718;28;20075;-81
2022/11/12 08:28:14;;;;;;;8.95;5.68;;;;;;;;;;4948593;29;20391;-81
2022/11/12 08:30:39;;;;;;;12.73;6.13;;;;;;;;;;4962301;28;20063;-81
2022/11/12 08:33:05;;;;;;;8.75;5.97;;;;;;;;;;4948092;28;20053;-81
2022/11/12 08:35:31;;;;;;;9.80;6.30;;;;;;;;;;4949290;28;20114;-81
2022/11/12 08:37:58;;;;;;;9.60;6.38;;;;;;;;;;4947544;28;21205;-83
2022/11/12 08:40:24;;;;;;;10.00;6.28;;;;;;;;;;4952488;28;20515;-84
2022/11/12 08:42:57;;;;;;;9.52;6.35;;;;;;;;;;4946001;28;20035;-81
2022/11/12 08:45:27;;;;;;;11.25;6.25;;;;;;;;;;4950598;28;21220;-81
2022/11/12 08:47:57;;;;;;;10.18;6.78;;;;;;;;;;4952450;28;20051;-81
2022/11/12 08:50:22;;;;;;;12.13;6.72;;;;;;;;;;4944752;28;20031;-81
2022/11/12 08:52:47;;;;;;;10.68;7.30;;;;;;;;;;4965592;28;20026;-81
2022/11/12 08:55:13;;;;;;;9.82;6.97;;;;;;;;;;4946477;28;20038;-81
2022/11/12 08:57:43;;;;;;;11.02;6.85;;;;;;;;;;4956816;28;20030;-81
2022/11/12 09:00:12;;;;;;;11.18;7.53;;;;;;;;;;4945380;28;20027;-81
2022/11/12 09:02:38;;;;;;;9.32;6.88;;;;;;;;;;4949491;28;20370;-81
2022/11/12 09:05:06;;;;;;;12.27;7.50;;;;;;;;;;4951176;28;20038;-80
2022/11/12 09:07:31;;;;;;;12.68;7.60;;;;;;;;;;4951921;28;20546;-81
2022/11/12 09:09:57;;;;;;;11.07;7.28;;;;;;;;;;4948019;28;20075;-81
2022/11/12 09:12:23;;;;;;;10.38;7.13;;;;;;;;;;4950157;28;20452;-80
2022/11/12 09:14:48;;;;;;;12.35;8.27;;;;;;;;;;4950956;28;20066;-82
2022/11/12 09:17:13;;;;;;;12.63;8.38;;;;;;;;;;4963881;28;20448;-80
2022/11/12 09:19:39;;;;;;;13.77;7.95;;;;;;;;;;4949027;28;20031;-81
2022/11/12 09:22:05;;;;;;;12.60;8.38;;;;;;;;;;4943451;28;20036;-80
2022/11/12 09:24:30;;;;;;;13.95;8.25;;;;;;;;;;4962878;28;20404;-80
2022/11/12 09:26:56;;;;;;;10.98;7.72;;;;;;;;;;4952458;28;20027;-81
2022/11/12 09:29:21;;;;;;;10.65;7.15;;;;;;;;;;4950356;28;20042;-80
2022/11/12 09:31:47;;;;;;;9.77;6.82;;;;;;;;;;4948062;28;20023;-81
2022/11/12 09:34:12;;;;;;;11.10;7.40;;;;;;;;;;4941661;28;20070;-80
2022/11/12 09:36:38;;;;;;;10.88;7.20;;;;;;;;;;4947742;28;20081;-81
2022/11/12 09:39:04;;;;;;;13.02;7.85;;;;;;;;;;4950345;28;20039;-83
2022/11/12 09:41:38;;;;;;;13.25;7.47;;;;;;;;;;4966769;28;20031;-81
2022/11/12 09:44:14;;;;;;;11.25;7.63;;;;;;;;;;4949468;28;20035;-80
2022/11/12 09:47:06;;;;;;;10.95;7.90;;;;;;;;;;4957349;28;20051;-81
2022/11/12 09:49:39;;;;;;;12.02;7.43;;;;;;;;;;4963659;28;20035;-80
2022/11/12 09:52:23;;;;;;;11.75;7.32;;;;;;;;;;4965496;28;20027;-80
2022/11/12 09:54:56;;;;;;;10.90;6.53;;;;;;;;;;4942829;28;20106;-80
2022/11/12 09:57:21;;;;;;;11.70;7.57;;;;;;;;;;4963138;28;20472;-81
2022/11/12 09:59:46;;;;;;;9.52;6.88;;;;;;;;;;4946225;28;20042;-80
2022/11/12 10:02:15;;;;;;;9.20;6.47;;;;;;;;;;4949770;28;20031;-80
2022/11/12 10:05:02;;;;;;;10.15;6.40;;;;;;;;;;4964743;28;20031;-80
2022/11/12 10:07:55;;;;;;;9.90;6.45;;;;;;;;;;4955369;28;20038;-80
2022/11/12 10:10:31;;;;;;;8.70;6.73;;;;;;;;;;4949018;28;20043;-80
2022/11/12 10:13:08;;;;;;;10.18;6.72;;;;;;;;;;4961110;28;20285;-81
2022/11/12 10:19:19;;;;;;;13.18;6.93;;;;;;;;;;4954165;28;20456;-80
2022/11/12 10:22:23;;;;;;;13.88;6.82;;;;;;;;;;4969056;28;20050;-80
2022/11/12 10:24:49;;;;;;;10.55;6.28;;;;;;;;;;4964007;28;20035;-80
2022/11/12 10:27:20;;;;;;;8.88;6.70;;;;;;;;;;4967418;28;20169;-81
2022/11/12 10:30:00;;;;;;;10.70;6.22;;;;;;;;;;4958176;28;20121;-79
2022/11/12 10:32:26;;;;;;;10.10;6.28;;;;;;;;;;4950610;28;20019;-80
2022/11/12 10:34:51;;;;;;;11.35;6.47;;;;;;;;;;4952538;28;20030;-80
2022/11/12 10:37:22;;;;;;;10.27;6.35;;;;;;;;;;4957262;28;20387;-80
2022/11/12 10:39:48;;;;;;;8.65;6.25;;;;;;;;;;4952314;28;20400;-80
2022/11/12 10:42:16;;;;;;;9.43;6.60;;;;;;;;;;4948295;28;20088;-80
2022/11/12 10:44:42;;;;;;;10.25;6.28;;;;;;;;;;4967011;28;20031;-80
2022/11/12 10:47:19;;;;;;;9.85;6.63;;;;;;;;;;4953402;28;20558;-80
2022/11/12 10:50:07;;;;;;;9.43;6.60;;;;;;;;;;4968985;28;20035;-80
2022/11/12 10:52:33;;;;;;;8.93;6.45;;;;;;;;;;4951663;28;20478;-80
2022/11/12 10:55:21;;;;;;;10.35;6.40;;;;;;;;;;4954875;28;20515;-80
2022/11/12 10:58:20;;;;;;;8.95;6.03;;;;;;;;;;4949652;28;20023;-79
2022/11/12 11:01:14;;;;;;;10.55;6.80;;;;;;;;;;4943291;28;20043;-82
2022/11/12 11:03:56;;;;;;;11.23;6.40;;;;;;;;;;4966049;28;20508;-81
2022/11/12 11:06:25;;;;;;;8.45;6.20;;;;;;;;;;4946396;28;20038;-80
2022/11/12 11:09:18;;;;;;;9.05;6.45;;;;;;;;;;4951760;28;20043;-81
2022/11/12 11:11:52;;;;;;;9.68;6.10;;;;;;;;;;4954692;28;20031;-81
2022/11/12 11:14:20;;;;;;;9.15;5.72;;;;;;;;;;4961996;28;20055;-80
2022/11/12 11:16:55;;;;;;;10.07;5.68;;;;;;;;;;4959775;28;20890;-81
2022/11/12 11:19:20;;;;;;;8.88;6.03;;;;;;;;;;4954615;28;20024;-81
2022/11/12 11:21:49;;;;;;;9.20;5.63;;;;;;;;;;4965641;28;20083;-80
2022/11/12 11:24:38;;;;;;;8.27;5.18;;;;;;;;;;4962826;28;20023;-80
2022/11/12 11:27:29;;;;;;;7.85;5.22;;;;;;;;;;4950572;28;20043;-80
2022/11/12 11:30:38;;;;;;;7.20;5.10;;;;;;;;;;4953537;28;20031;-80
2022/11/12 11:33:22;;;;;;;9.93;5.40;;;;;;;;;;4942356;28;20606;-80
2022/11/12 11:36:09;;;;;;;13.48;6.82;;;;;;;;;;4952013;29;20031;-79
2022/11/12 11:38:38;;;;;;;9.35;6.22;;;;;;;;;;4962764;28;20053;-80
2022/11/12 11:41:40;;;;;;;9.98;7.25;;;;;;;;;;4958218;28;20031;-80
2022/11/12 11:44:20;;;;;;;10.60;6.57;;;;;;;;;;4950926;28;20123;-80
2022/11/12 11:46:57;;;;;;;13.00;8.05;;;;;;;;;;4947240;29;20483;-80
2022/11/12 11:49:44;;;;;;;9.27;6.88;;;;;;;;;;4951969;28;20050;-80
2022/11/12 11:52:31;;;;;;;8.52;6.10;;;;;;;;;;4961916;28;20038;-80
2022/11/12 11:55:23;;;;;;;9.30;6.15;;;;;;;;;;4967266;28;20487;-80
2022/11/12 11:57:56;;;;;;;7.80;5.72;;;;;;;;;;4965576;28;20799;-80
2022/11/12 12:00:30;;;;;;;7.72;5.85;;;;;;;;;;4952217;28;20042;-80
2022/11/12 12:03:51;;;;;;;9.40;5.68;;;;;;;;;;4952932;28;20081;-80
2022/11/12 12:06:25;;;;;;;10.38;6.85;;;;;;;;;;4933634;29;20543;-81
2022/11/12 12:09:19;;;;;;;9.93;6.57;;;;;;;;;;4951370;28;20051;-80
2022/11/12 12:11:51;;;;;;;10.05;7.10;;;;;;;;;;4951167;28;20042;-80
2022/11/12 12:14:32;;;;;;;10.60;8.38;;;;;;;;;;4952882;28;20121;-81
2022/11/12 12:17:23;;;;;;;14.02;9.88;;;;;;;;;;4970194;28;20500;-80
2022/11/12 12:20:01;;;;;;;14.38;10.05;;;;;;;;;;4967623;28;20038;-81
2022/11/12 12:22:58;;;;;;;11.98;9.60;;;;;;;;;;4951070;28;20027;-80
2022/11/12 12:25:35;;;;;;;16.98;10.63;;;;;;;;;;4941246;28;20147;-81
2022/11/12 12:28:09;;;;;;;16.05;11.50;;;;;;;;;;4948612;28;20039;-82
2022/11/12 12:30:39;;;;;;;16.88;11.60;;;;;;;;;;4947825;28;20043;-81
2022/11/12 12:33:27;;;;;;;14.80;10.65;;;;;;;;;;4944485;28;20074;-81
2022/11/12 12:36:01;;;;;;;12.63;10.15;;;;;;;;;;4964286;28;20034;-80
2022/11/12 12:38:48;;;;;;;14.50;11.20;;;;;;;;;;4949897;28;20462;-81
2022/11/12 12:41:29;;;;;;;13.02;9.32;;;;;;;;;;4946174;28;20488;-81
2022/11/12 12:44:01;;;;;;;15.98;9.68;;;;;;;;;;4946211;28;20035;-80
2022/11/12 12:46:29;;;;;;;11.75;8.85;;;;;;;;;;4950078;28;20050;-81
2022/11/12 12:48:57;;;;;;;8.63;6.50;;;;;;;;;;4948915;28;20439;-80
2022/11/12 12:51:23;;;;;;;8.70;5.95;;;;;;;;;;4943610;28;20137;-81
2022/11/12 12:53:49;;;;;;;8.13;5.82;;;;;;;;;;4947109;28;20050;-81
2022/11/12 12:56:14;;;;;;;9.05;6.20;;;;;;;;;;4948602;28;20057;-81
2022/11/12 12:58:43;;;;;;;12.43;8.13;;;;;;;;;;4962046;28;20031;-80
2022/11/12 13:01:09;;;;;;;11.30;8.30;;;;;;;;;;4958724;28;20023;-81
2022/11/12 13:03:43;;;;;;;11.65;8.77;;;;;;;;;;4947321;28;20035;-82
2022/11/12 13:06:22;;;;;;;12.48;9.05;;;;;;;;;;4956157;28;20035;-81
2022/11/12 13:08:58;;;;;;;11.73;8.68;;;;;;;;;;4946366;28;20626;-81
2022/11/12 13:14:44;;;;;;;13.50;9.10;;;;;;;;;;4946789;28;20050;-82
2022/11/12 13:17:10;;;;;;;12.43;9.10;;;;;;;;;;4949575;28;21243;-82
2022/11/12 13:19:40;;;;;;;14.88;8.75;;;;;;;;;;4944519;28;20158;-81
2022/11/12 13:22:26;;;;;;;12.45;8.75;;;;;;;;;;4965108;28;20035;-82
2022/11/12 13:25:09;;;;;;;32.80;10.15;;;;;;;;;;4949344;28;20046;-85
2022/11/12 13:27:50;;;;;;;12.68;10.05;;;;;;;;;;4944755;28;20060;-88
2022/11/12 13:30:16;;;;;;;12.82;10.07;;;;;;;;;;4955213;28;20065;-87
2022/11/12 13:32:53;;;;;;;12.70;9.60;;;;;;;;;;4941241;28;20078;-86
2022/11/12 13:35:21;;;;;;;14.75;10.63;;;;;;;;;;4946510;28;20033;-86
2022/11/12 13:38:05;;;;;;;13.90;10.38;;;;;;;;;;4942407;28;20031;-86
2022/11/12 13:41:08;;;;;;;11.93;9.23;;;;;;;;;;4954514;28;20031;-86
2022/11/12 13:43:38;;;;;;;15.23;9.63;;;;;;;;;;4943001;28;20446;-87
2022/11/12 13:46:09;;;;;;;13.70;9.80;;;;;;;;;;4959765;28;20582;-86
2022/11/12 13:48:55;;;;;;;12.35;9.30;;;;;;;;;;4948538;28;20643;-87
2022/11/12 13:51:33;;;;;;;13.07;9.40;;;;;;;;;;4949704;28;20023;-85
2022/11/12 13:53:59;;;;;;;14.50;10.57;;;;;;;;;;4956365;28;20479;-86
2022/11/12 13:56:34;;;;;;;13.77;9.93;;;;;;;;;;4940190;29;20035;-87
2022/11/12 13:59:19;;;;;;;12.90;10.25;;;;;;;;;;4938715;28;20028;-87
2022/11/12 14:01:47;;;;;;;14.48;10.80;;;;;;;;;;4952849;28;20028;-86
2022/11/12 14:04:15;;;;;;;13.35;10.38;;;;;;;;;;4943085;28;20031;-86
2022/11/12 14:06:52;;;;;;;13.55;11.13;;;;;;;;;;4948790;28;20475;-86
2022/11/12 14:09:46;;;;;;;13.65;10.20;;;;;;;;;;4942071;28;20381;-86
2022/11/12 14:12:33;;;;;;;14.00;10.48;;;;;;;;;;4962664;28;20102;-87
2022/11/12 14:15:17;;;;;;;14.05;10.30;;;;;;;;;;4946448;28;20051;-86
2022/11/12 14:18:15;;;;;;;14.10;10.70;;;;;;;;;;4959317;28;20129;-86
2022/11/12 14:20:41;;;;;;;14.60;11.35;;;;;;;;;;4904052;29;20414;-87
2022/11/12 14:23:18;;;;;;;15.40;11.15;;;;;;;;;;4944301;28;20020;-87
2022/11/12 14:25:49;;;;;;;14.38;11.40;;;;;;;;;;4941631;28;20332;-87
2022/11/12 14:28:30;;;;;;;15.38;10.82;;;;;;;;;;4947003;28;20546;-88
2022/11/12 14:30:57;;;;;;;15.10;10.82;;;;;;;;;;4945858;28;20060;-87
2022/11/12 14:33:27;;;;;;;14.43;11.05;;;;;;;;;;4944692;28;20555;-87
2022/11/12 14:36:19;;;;;;;15.35;11.18;;;;;;;;;;4961149;28;20039;-87
2022/11/12 14:38:57;;;;;;;13.70;10.48;;;;;;;;;;4941983;28;20039;-86
2022/11/12 14:41:32;;;;;;;14.82;10.90;;;;;;;;;;4952935;28;20026;-87
2022/11/12 14:44:01;;;;;;;16.08;11.82;;;;;;;;;;4947011;28;20042;-86
2022/11/12 14:46:32;;;;;;;15.98;11.75;;;;;;;;;;4956925;28;20501;-86
2022/11/12 14:49:05;;;;;;;15.13;11.43;;;;;;;;;;4968643;28;20551;-86
2022/11/12 14:51:48;;;;;;;17.63;11.30;;;;;;;;;;4951805;28;20094;-86
2022/11/12 14:54:30;;;;;;;;;;;;;;;;;;4948598;28;20043;-86
2022/11/12 14:56:59;;;;;;;12.82;10.65;;;;;;;;;;4949803;28;19969;-87
2022/11/12 14:59:25;;;;;;;14.48;11.55;;;;;;;;;;4957393;28;20037;-86
2022/11/12 15:02:11;;;;;;;14.40;10.98;;;;;;;;;;4951239;28;20463;-86
2022/11/12 15:05:02;;;;;;;14.80;10.85;;;;;;;;;;4963225;28;20458;-86
2022/11/12 15:07:31;;;;;;;13.93;11.13;;;;;;;;;;4971723;28;20483;-87
2022/11/12 15:09:57;;;;;;;15.55;10.98;;;;;;;;;;4940712;28;20047;-86
2022/11/12 15:12:26;;;;;;;15.95;11.65;;;;;;;;;;4965607;28;20031;-86
2022/11/12 15:14:52;;;;;;;17.23;12.55;;;;;;;;;;4948372;28;20031;-86
2022/11/12 15:17:32;;;;;;;15.35;11.48;;;;;;;;;;4947901;28;20026;-86
2022/11/12 15:20:12;;;;;;;18.30;10.65;;;;;;;;;;4953131;28;20571;-85
2022/11/12 15:22:38;;;;;;;14.30;10.77;;;;;;;;;;4961952;28;20042;-87